sensor_id;sensor_type;location;lat;lon;timestamp;temperature;humidity
61392;DHT22;47261;52.892;5.738;2023-11-19T00:02:19;12.80;99.90
61392;DHT22;47261;52.892;5.738;2023-11-19T00:04:45;12.80;99.90
61392;DHT22;47261;52.892;5.738;2023-11-19T00:07:10;12.70;99.90
61392;DHT22;47261;52.892;5.738;2023-11-19T00:09:39;12.70;99.90
61392;DHT22;47261;52.892;5.738;2023-11-19T00:12:06;12.70;99.90
61392;DHT22;47261;52.892;5.738;2023-11-19T00:14:32;12.70;99.90
61392;DHT22;47261;52.892;5.738;2023-11-19T00:16:57;12.70;99.90
61392;DHT22;47261;52.892;5.738;2023-11-19T00:19:23;12.70;99.90
61392;DHT22;47261;52.892;5.738;2023-11-19T00:21:48;12.70;99.90
61392;DHT22;47261;52.892;5.738;2023-11-19T00:24:14;12.70;99.90
61392;DHT22;47261;52.892;5.738;2023-11-19T00:26:43;12.70;99.90
61392;DHT22;47261;52.892;5.738;2023-11-19T00:29:09;12.70;99.90
61392;DHT22;47261;52.892;5.738;2023-11-19T00:31:34;12.70;99.90
61392;DHT22;47261;52.892;5.738;2023-11-19T00:34:00;12.80;99.90
61392;DHT22;47261;52.892;5.738;2023-11-19T00:36:27;12.80;99.90
61392;DHT22;47261;52.892;5.738;2023-11-19T00:38:53;12.80;99.90
61392;DHT22;47261;52.892;5.738;2023-11-19T00:41:20;12.70;99.90
61392;DHT22;47261;52.892;5.738;2023-11-19T00:43:45;12.70;99.90
61392;DHT22;47261;52.892;5.738;2023-11-19T00:46:11;12.70;99.90
61392;DHT22;47261;52.892;5.738;2023-11-19T00:48:37;12.70;99.90
61392;DHT22;47261;52.892;5.738;2023-11-19T00:51:03;12.60;99.90
61392;DHT22;47261;52.892;5.738;2023-11-19T00:53:30;12.60;99.90
61392;DHT22;47261;52.892;5.738;2023-11-19T00:55:55;12.60;99.90
61392;DHT22;47261;52.892;5.738;2023-11-19T00:58:21;12.60;99.90
61392;DHT22;47261;52.892;5.738;2023-11-19T01:00:47;12.60;99.90
61392;DHT22;47261;52.892;5.738;2023-11-19T01:03:13;12.60;99.90
61392;DHT22;47261;52.892;5.738;2023-11-19T01:05:40;12.60;99.90
61392;DHT22;47261;52.892;5.738;2023-11-19T01:08:06;12.60;99.90
61392;DHT22;47261;52.892;5.738;2023-11-19T01:10:32;12.60;99.90
61392;DHT22;47261;52.892;5.738;2023-11-19T01:12:57;12.60;99.90
61392;DHT22;47261;52.892;5.738;2023-11-19T01:15:23;12.60;99.90
61392;DHT22;47261;52.892;5.738;2023-11-19T01:17:49;12.60;99.90
61392;DHT22;47261;52.892;5.738;2023-11-19T01:20:14;12.60;99.90
61392;DHT22;47261;52.892;5.738;2023-11-19T01:22:40;12.60;99.90
61392;DHT22;47261;52.892;5.738;2023-11-19T01:25:06;12.60;99.90
61392;DHT22;47261;52.892;5.738;2023-11-19T01:27:33;12.50;99.90
61392;DHT22;47261;52.892;5.738;2023-11-19T01:30:02;12.50;99.90
61392;DHT22;47261;52.892;5.738;2023-11-19T01:32:35;12.50;99.90
61392;DHT22;47261;52.892;5.738;2023-11-19T01:35:02;12.40;99.90
61392;DHT22;47261;52.892;5.738;2023-11-19T01:37:29;12.30;99.90
61392;DHT22;47261;52.892;5.738;2023-11-19T01:39:55;12.30;99.90
61392;DHT22;47261;52.892;5.738;2023-11-19T01:42:20;12.20;99.90
61392;DHT22;47261;52.892;5.738;2023-11-19T01:45:18;12.10;99.90
61392;DHT22;47261;52.892;5.738;2023-11-19T01:47:47;12.10;99.90
61392;DHT22;47261;52.892;5.738;2023-11-19T01:50:12;12.10;99.90
61392;DHT22;47261;52.892;5.738;2023-11-19T01:52:38;12.10;99.90
61392;DHT22;47261;52.892;5.738;2023-11-19T01:55:04;12.10;99.90
61392;DHT22;47261;52.892;5.738;2023-11-19T01:57:30;12.00;99.90
61392;DHT22;47261;52.892;5.738;2023-11-19T01:59:56;12.00;99.90
61392;DHT22;47261;52.892;5.738;2023-11-19T02:02:21;12.00;99.90
61392;DHT22;47261;52.892;5.738;2023-11-19T02:04:49;11.90;99.90
61392;DHT22;47261;52.892;5.738;2023-11-19T02:07:15;11.90;99.90
61392;DHT22;47261;52.892;5.738;2023-11-19T02:09:43;11.90;99.90
61392;DHT22;47261;52.892;5.738;2023-11-19T02:12:09;11.90;99.90
61392;DHT22;47261;52.892;5.738;2023-11-19T02:14:37;11.90;99.90
61392;DHT22;47261;52.892;5.738;2023-11-19T02:17:02;11.90;99.90
61392;DHT22;47261;52.892;5.738;2023-11-19T02:19:28;11.90;99.90
61392;DHT22;47261;52.892;5.738;2023-11-19T02:21:54;11.90;99.90
61392;DHT22;47261;52.892;5.738;2023-11-19T02:24:22;11.90;99.90
61392;DHT22;47261;52.892;5.738;2023-11-19T02:27:08;11.80;99.90
61392;DHT22;47261;52.892;5.738;2023-11-19T02:29:36;11.80;99.90
61392;DHT22;47261;52.892;5.738;2023-11-19T02:32:01;11.80;99.90
61392;DHT22;47261;52.892;5.738;2023-11-19T02:34:27;11.80;99.90
61392;DHT22;47261;52.892;5.738;2023-11-19T02:36:53;11.80;99.90
61392;DHT22;47261;52.892;5.738;2023-11-19T02:39:19;11.80;99.90
61392;DHT22;47261;52.892;5.738;2023-11-19T02:41:47;11.80;99.90
61392;DHT22;47261;52.892;5.738;2023-11-19T02:44:16;11.80;99.90
61392;DHT22;47261;52.892;5.738;2023-11-19T02:46:41;11.80;99.90
61392;DHT22;47261;52.892;5.738;2023-11-19T02:49:07;11.80;99.90
61392;DHT22;47261;52.892;5.738;2023-11-19T02:51:33;11.80;99.90
61392;DHT22;47261;52.892;5.738;2023-11-19T02:54:00;11.80;99.90
61392;DHT22;47261;52.892;5.738;2023-11-19T02:56:26;11.90;99.90
61392;DHT22;47261;52.892;5.738;2023-11-19T02:58:52;11.90;99.90
61392;DHT22;47261;52.892;5.738;2023-11-19T03:01:24;11.90;99.90
61392;DHT22;47261;52.892;5.738;2023-11-19T03:03:59;11.90;99.90
61392;DHT22;47261;52.892;5.738;2023-11-19T03:06:26;11.90;99.90
61392;DHT22;47261;52.892;5.738;2023-11-19T03:08:55;11.90;99.90
61392;DHT22;47261;52.892;5.738;2023-11-19T03:11:21;12.00;99.90
61392;DHT22;47261;52.892;5.738;2023-11-19T03:13:47;12.00;99.90
61392;DHT22;47261;52.892;5.738;2023-11-19T03:16:13;11.90;99.90
61392;DHT22;47261;52.892;5.738;2023-11-19T03:18:39;12.00;99.90
61392;DHT22;47261;52.892;5.738;2023-11-19T03:21:08;12.00;99.90
61392;DHT22;47261;52.892;5.738;2023-11-19T03:23:34;12.00;99.90
61392;DHT22;47261;52.892;5.738;2023-11-19T03:26:00;12.10;99.90
61392;DHT22;47261;52.892;5.738;2023-11-19T03:28:29;12.10;99.90
61392;DHT22;47261;52.892;5.738;2023-11-19T03:30:54;12.10;99.90
61392;DHT22;47261;52.892;5.738;2023-11-19T03:33:20;12.10;99.90
61392;DHT22;47261;52.892;5.738;2023-11-19T03:35:46;12.20;99.90
61392;DHT22;47261;52.892;5.738;2023-11-19T03:38:12;12.20;99.90
61392;DHT22;47261;52.892;5.738;2023-11-19T03:40:38;12.20;99.90
61392;DHT22;47261;52.892;5.738;2023-11-19T03:43:04;12.20;99.90
61392;DHT22;47261;52.892;5.738;2023-11-19T03:45:30;12.20;99.90
61392;DHT22;47261;52.892;5.738;2023-11-19T03:47:56;12.20;99.90
61392;DHT22;47261;52.892;5.738;2023-11-19T03:50:21;12.20;99.90
61392;DHT22;47261;52.892;5.738;2023-11-19T03:52:47;12.20;99.90
61392;DHT22;47261;52.892;5.738;2023-11-19T03:55:13;12.20;99.90
61392;DHT22;47261;52.892;5.738;2023-11-19T03:57:39;12.20;99.90
61392;DHT22;47261;52.892;5.738;2023-11-19T04:00:05;12.20;99.90
61392;DHT22;47261;52.892;5.738;2023-11-19T04:02:36;12.20;99.90
61392;DHT22;47261;52.892;5.738;2023-11-19T04:05:02;12.20;99.90
61392;DHT22;47261;52.892;5.738;2023-11-19T04:07:29;12.20;99.90
61392;DHT22;47261;52.892;5.738;2023-11-19T04:09:54;12.20;99.90
61392;DHT22;47261;52.892;5.738;2023-11-19T04:12:20;12.20;99.90
61392;DHT22;47261;52.892;5.738;2023-11-19T04:14:47;12.20;99.90
61392;DHT22;47261;52.892;5.738;2023-11-19T04:17:13;12.20;99.90
61392;DHT22;47261;52.892;5.738;2023-11-19T04:19:38;12.10;99.90
61392;DHT22;47261;52.892;5.738;2023-11-19T04:22:10;12.10;99.90
61392;DHT22;47261;52.892;5.738;2023-11-19T04:24:36;12.10;99.90
61392;DHT22;47261;52.892;5.738;2023-11-19T04:27:02;12.20;99.90
61392;DHT22;47261;52.892;5.738;2023-11-19T04:29:30;12.20;99.90
61392;DHT22;47261;52.892;5.738;2023-11-19T04:31:56;12.20;99.90
61392;DHT22;47261;52.892;5.738;2023-11-19T04:34:22;12.20;99.90
61392;DHT22;47261;52.892;5.738;2023-11-19T04:36:47;12.20;99.90
61392;DHT22;47261;52.892;5.738;2023-11-19T04:39:13;12.20;99.90
61392;DHT22;47261;52.892;5.738;2023-11-19T04:41:47;12.20;99.90
61392;DHT22;47261;52.892;5.738;2023-11-19T04:44:15;12.10;99.90
61392;DHT22;47261;52.892;5.738;2023-11-19T04:46:41;12.20;99.90
61392;DHT22;47261;52.892;5.738;2023-11-19T04:49:09;12.10;99.90
61392;DHT22;47261;52.892;5.738;2023-11-19T04:51:42;12.10;99.90
61392;DHT22;47261;52.892;5.738;2023-11-19T04:54:09;12.10;99.90
61392;DHT22;47261;52.892;5.738;2023-11-19T04:56:36;12.10;99.90
61392;DHT22;47261;52.892;5.738;2023-11-19T04:59:05;12.10;99.90
61392;DHT22;47261;52.892;5.738;2023-11-19T05:01:32;12.10;99.90
61392;DHT22;47261;52.892;5.738;2023-11-19T05:03:57;12.10;99.90
61392;DHT22;47261;52.892;5.738;2023-11-19T05:06:30;12.10;99.90
61392;DHT22;47261;52.892;5.738;2023-11-19T05:08:58;12.10;99.90
61392;DHT22;47261;52.892;5.738;2023-11-19T05:11:24;12.10;99.90
61392;DHT22;47261;52.892;5.738;2023-11-19T05:13:49;12.10;99.90
61392;DHT22;47261;52.892;5.738;2023-11-19T05:16:16;12.10;99.90
61392;DHT22;47261;52.892;5.738;2023-11-19T05:18:43;12.00;99.90
61392;DHT22;47261;52.892;5.738;2023-11-19T05:21:08;12.10;99.90
61392;DHT22;47261;52.892;5.738;2023-11-19T05:23:34;12.00;99.90
61392;DHT22;47261;52.892;5.738;2023-11-19T05:26:03;12.00;99.90
61392;DHT22;47261;52.892;5.738;2023-11-19T05:28:29;12.00;99.90
61392;DHT22;47261;52.892;5.738;2023-11-19T05:30:54;12.10;99.90
61392;DHT22;47261;52.892;5.738;2023-11-19T05:33:21;12.10;99.90
61392;DHT22;47261;52.892;5.738;2023-11-19T05:35:46;12.00;99.90
61392;DHT22;47261;52.892;5.738;2023-11-19T05:38:12;12.10;99.90
61392;DHT22;47261;52.892;5.738;2023-11-19T05:40:38;12.00;99.90
61392;DHT22;47261;52.892;5.738;2023-11-19T05:43:04;12.00;99.90
61392;DHT22;47261;52.892;5.738;2023-11-19T05:45:31;12.00;99.90
61392;DHT22;47261;52.892;5.738;2023-11-19T05:47:57;12.00;99.90
61392;DHT22;47261;52.892;5.738;2023-11-19T05:50:23;12.00;99.90
61392;DHT22;47261;52.892;5.738;2023-11-19T05:52:49;12.00;99.90
61392;DHT22;47261;52.892;5.738;2023-11-19T05:55:15;12.00;99.90
61392;DHT22;47261;52.892;5.738;2023-11-19T05:57:41;12.00;99.90
61392;DHT22;47261;52.892;5.738;2023-11-19T06:00:07;12.00;99.90
61392;DHT22;47261;52.892;5.738;2023-11-19T06:02:40;12.00;99.90
61392;DHT22;47261;52.892;5.738;2023-11-19T06:05:06;12.00;99.90
61392;DHT22;47261;52.892;5.738;2023-11-19T06:07:33;12.10;99.90
61392;DHT22;47261;52.892;5.738;2023-11-19T06:09:58;12.10;99.90
61392;DHT22;47261;52.892;5.738;2023-11-19T06:12:24;12.10;99.90
61392;DHT22;47261;52.892;5.738;2023-11-19T06:14:50;12.10;99.90
61392;DHT22;47261;52.892;5.738;2023-11-19T06:17:15;12.00;99.90
61392;DHT22;47261;52.892;5.738;2023-11-19T06:19:41;12.00;99.90
61392;DHT22;47261;52.892;5.738;2023-11-19T06:22:06;12.00;99.90
61392;DHT22;47261;52.892;5.738;2023-11-19T06:24:33;11.90;99.90
61392;DHT22;47261;52.892;5.738;2023-11-19T06:26:59;11.90;99.90
61392;DHT22;47261;52.892;5.738;2023-11-19T06:29:24;11.90;99.90
61392;DHT22;47261;52.892;5.738;2023-11-19T06:31:50;11.90;99.90
61392;DHT22;47261;52.892;5.738;2023-11-19T06:34:16;11.90;99.90
61392;DHT22;47261;52.892;5.738;2023-11-19T06:36:42;11.90;99.90
61392;DHT22;47261;52.892;5.738;2023-11-19T06:39:09;11.80;99.90
61392;DHT22;47261;52.892;5.738;2023-11-19T06:41:36;11.80;99.90
61392;DHT22;47261;52.892;5.738;2023-11-19T06:44:03;11.90;99.90
61392;DHT22;47261;52.892;5.738;2023-11-19T06:46:30;11.80;99.90
61392;DHT22;47261;52.892;5.738;2023-11-19T06:48:56;11.90;99.90
61392;DHT22;47261;52.892;5.738;2023-11-19T06:51:22;11.90;99.90
61392;DHT22;47261;52.892;5.738;2023-11-19T06:53:48;11.90;99.90
61392;DHT22;47261;52.892;5.738;2023-11-19T06:56:24;11.90;99.90
61392;DHT22;47261;52.892;5.738;2023-11-19T06:58:50;11.90;99.90
61392;DHT22;47261;52.892;5.738;2023-11-19T07:01:16;11.90;99.90
61392;DHT22;47261;52.892;5.738;2023-11-19T07:03:45;11.90;99.90
61392;DHT22;47261;52.892;5.738;2023-11-19T07:06:11;11.90;99.90
61392;DHT22;47261;52.892;5.738;2023-11-19T07:08:39;11.90;99.90
61392;DHT22;47261;52.892;5.738;2023-11-19T07:11:04;11.90;99.90
61392;DHT22;47261;52.892;5.738;2023-11-19T07:13:30;11.90;99.90
61392;DHT22;47261;52.892;5.738;2023-11-19T07:15:56;11.90;99.90
61392;DHT22;47261;52.892;5.738;2023-11-19T07:18:22;11.80;99.90
61392;DHT22;47261;52.892;5.738;2023-11-19T07:20:48;11.80;99.90
61392;DHT22;47261;52.892;5.738;2023-11-19T07:23:14;11.80;99.90
61392;DHT22;47261;52.892;5.738;2023-11-19T07:25:43;11.80;99.90
61392;DHT22;47261;52.892;5.738;2023-11-19T07:28:08;11.70;99.90
61392;DHT22;47261;52.892;5.738;2023-11-19T07:30:35;11.80;99.90
61392;DHT22;47261;52.892;5.738;2023-11-19T07:33:01;11.80;99.90
61392;DHT22;47261;52.892;5.738;2023-11-19T07:35:29;11.80;99.90
61392;DHT22;47261;52.892;5.738;2023-11-19T07:37:59;11.80;99.90
61392;DHT22;47261;52.892;5.738;2023-11-19T07:40:25;11.80;99.90
61392;DHT22;47261;52.892;5.738;2023-11-19T07:42:50;11.90;99.90
61392;DHT22;47261;52.892;5.738;2023-11-19T07:45:16;11.90;99.90
61392;DHT22;47261;52.892;5.738;2023-11-19T07:47:43;12.00;99.90
61392;DHT22;47261;52.892;5.738;2023-11-19T07:50:10;12.00;99.90
61392;DHT22;47261;52.892;5.738;2023-11-19T07:52:37;12.00;99.90
61392;DHT22;47261;52.892;5.738;2023-11-19T07:55:03;12.00;99.90
61392;DHT22;47261;52.892;5.738;2023-11-19T07:57:28;12.10;99.90
61392;DHT22;47261;52.892;5.738;2023-11-19T07:59:57;12.10;99.90
61392;DHT22;47261;52.892;5.738;2023-11-19T08:02:22;12.10;99.90
61392;DHT22;47261;52.892;5.738;2023-11-19T08:04:49;12.10;99.90
61392;DHT22;47261;52.892;5.738;2023-11-19T08:07:18;12.10;99.90
61392;DHT22;47261;52.892;5.738;2023-11-19T08:09:43;12.20;99.90
61392;DHT22;47261;52.892;5.738;2023-11-19T08:12:09;12.20;99.90
61392;DHT22;47261;52.892;5.738;2023-11-19T08:14:35;12.10;99.90
61392;DHT22;47261;52.892;5.738;2023-11-19T08:17:01;12.20;99.90
61392;DHT22;47261;52.892;5.738;2023-11-19T08:19:26;12.10;99.90
61392;DHT22;47261;52.892;5.738;2023-11-19T08:21:52;12.20;99.90
61392;DHT22;47261;52.892;5.738;2023-11-19T08:24:17;12.10;99.90
61392;DHT22;47261;52.892;5.738;2023-11-19T08:26:43;12.20;99.90
61392;DHT22;47261;52.892;5.738;2023-11-19T08:29:09;12.10;99.90
61392;DHT22;47261;52.892;5.738;2023-11-19T08:31:35;12.20;99.90
61392;DHT22;47261;52.892;5.738;2023-11-19T08:34:01;12.30;99.90
61392;DHT22;47261;52.892;5.738;2023-11-19T08:36:26;12.30;99.90
61392;DHT22;47261;52.892;5.738;2023-11-19T08:38:53;12.40;99.90
61392;DHT22;47261;52.892;5.738;2023-11-19T08:41:19;12.40;99.90
61392;DHT22;47261;52.892;5.738;2023-11-19T08:43:45;12.40;99.90
61392;DHT22;47261;52.892;5.738;2023-11-19T08:46:11;12.40;99.90
61392;DHT22;47261;52.892;5.738;2023-11-19T08:48:37;12.40;99.90
61392;DHT22;47261;52.892;5.738;2023-11-19T08:51:03;12.40;99.90
61392;DHT22;47261;52.892;5.738;2023-11-19T08:53:30;12.50;99.90
61392;DHT22;47261;52.892;5.738;2023-11-19T08:55:55;12.50;99.90
61392;DHT22;47261;52.892;5.738;2023-11-19T08:58:21;12.50;99.90
61392;DHT22;47261;52.892;5.738;2023-11-19T09:00:47;12.50;99.90
61392;DHT22;47261;52.892;5.738;2023-11-19T09:03:12;12.60;99.90
61392;DHT22;47261;52.892;5.738;2023-11-19T09:05:38;12.80;99.90
61392;DHT22;47261;52.892;5.738;2023-11-19T09:08:04;12.90;99.90
61392;DHT22;47261;52.892;5.738;2023-11-19T09:10:30;12.90;99.90
61392;DHT22;47261;52.892;5.738;2023-11-19T09:12:55;13.00;99.90
61392;DHT22;47261;52.892;5.738;2023-11-19T09:15:21;13.00;99.90
61392;DHT22;47261;52.892;5.738;2023-11-19T09:17:47;12.90;99.90
61392;DHT22;47261;52.892;5.738;2023-11-19T09:20:12;12.90;99.90
61392;DHT22;47261;52.892;5.738;2023-11-19T09:22:41;12.90;99.90
61392;DHT22;47261;52.892;5.738;2023-11-19T09:25:07;12.80;99.90
61392;DHT22;47261;52.892;5.738;2023-11-19T09:27:32;12.80;99.90
61392;DHT22;47261;52.892;5.738;2023-11-19T09:29:58;12.80;99.90
61392;DHT22;47261;52.892;5.738;2023-11-19T09:32:24;12.80;99.90
61392;DHT22;47261;52.892;5.738;2023-11-19T09:34:50;12.70;99.90
61392;DHT22;47261;52.892;5.738;2023-11-19T09:37:16;12.70;99.90
61392;DHT22;47261;52.892;5.738;2023-11-19T09:39:42;12.70;99.90
61392;DHT22;47261;52.892;5.738;2023-11-19T09:42:10;12.70;99.90
61392;DHT22;47261;52.892;5.738;2023-11-19T09:44:38;12.60;99.90
61392;DHT22;47261;52.892;5.738;2023-11-19T09:47:05;12.60;99.90
61392;DHT22;47261;52.892;5.738;2023-11-19T09:49:33;12.60;99.90
61392;DHT22;47261;52.892;5.738;2023-11-19T09:51:59;12.60;99.90
61392;DHT22;47261;52.892;5.738;2023-11-19T09:54:25;12.60;99.90
61392;DHT22;47261;52.892;5.738;2023-11-19T09:56:51;12.60;99.90
61392;DHT22;47261;52.892;5.738;2023-11-19T09:59:17;12.60;99.90
61392;DHT22;47261;52.892;5.738;2023-11-19T10:01:45;12.60;99.90
61392;DHT22;47261;52.892;5.738;2023-11-19T10:04:14;12.60;99.90
61392;DHT22;47261;52.892;5.738;2023-11-19T10:06:41;12.70;99.90
61392;DHT22;47261;52.892;5.738;2023-11-19T10:09:07;12.70;99.90
61392;DHT22;47261;52.892;5.738;2023-11-19T10:11:33;12.80;99.90
61392;DHT22;47261;52.892;5.738;2023-11-19T10:13:59;12.90;99.90
61392;DHT22;47261;52.892;5.738;2023-11-19T10:16:29;12.90;99.90
61392;DHT22;47261;52.892;5.738;2023-11-19T10:18:56;13.00;99.90
61392;DHT22;47261;52.892;5.738;2023-11-19T10:21:22;13.00;99.90
61392;DHT22;47261;52.892;5.738;2023-11-19T10:23:52;13.00;99.90
61392;DHT22;47261;52.892;5.738;2023-11-19T10:26:18;13.10;99.90
61392;DHT22;47261;52.892;5.738;2023-11-19T10:28:46;13.10;99.90
61392;DHT22;47261;52.892;5.738;2023-11-19T10:31:20;13.10;99.90
61392;DHT22;47261;52.892;5.738;2023-11-19T10:33:50;13.10;99.90
61392;DHT22;47261;52.892;5.738;2023-11-19T10:36:16;13.20;99.90
61392;DHT22;47261;52.892;5.738;2023-11-19T10:38:55;13.20;99.90
61392;DHT22;47261;52.892;5.738;2023-11-19T10:43:54;13.30;99.90
61392;DHT22;47261;52.892;5.738;2023-11-19T10:46:20;13.40;99.90
61392;DHT22;47261;52.892;5.738;2023-11-19T10:48:49;13.50;99.90
61392;DHT22;47261;52.892;5.738;2023-11-19T10:51:19;13.50;99.90
61392;DHT22;47261;52.892;5.738;2023-11-19T10:53:49;13.50;99.90
61392;DHT22;47261;52.892;5.738;2023-11-19T10:56:17;13.50;99.90
61392;DHT22;47261;52.892;5.738;2023-11-19T10:58:45;13.50;99.90
61392;DHT22;47261;52.892;5.738;2023-11-19T11:01:16;13.50;99.90
61392;DHT22;47261;52.892;5.738;2023-11-19T11:03:44;13.50;99.90
61392;DHT22;47261;52.892;5.738;2023-11-19T11:06:11;13.40;99.90
61392;DHT22;47261;52.892;5.738;2023-11-19T11:08:39;13.40;99.90
61392;DHT22;47261;52.892;5.738;2023-11-19T11:11:05;13.40;99.90
61392;DHT22;47261;52.892;5.738;2023-11-19T11:13:31;13.40;99.90
61392;DHT22;47261;52.892;5.738;2023-11-19T11:15:59;13.40;99.90
61392;DHT22;47261;52.892;5.738;2023-11-19T11:18:26;13.40;99.90
61392;DHT22;47261;52.892;5.738;2023-11-19T11:21:12;13.40;99.90
61392;DHT22;47261;52.892;5.738;2023-11-19T11:23:53;13.50;99.90
61392;DHT22;47261;52.892;5.738;2023-11-19T11:39:40;13.60;99.90
61392;DHT22;47261;52.892;5.738;2023-11-19T11:50:22;13.60;99.90
61392;DHT22;47261;52.892;5.738;2023-11-19T11:55:27;13.70;99.90
61392;DHT22;47261;52.892;5.738;2023-11-19T11:57:56;13.80;99.90
61392;DHT22;47261;52.892;5.738;2023-11-19T12:00:36;13.90;99.90
61392;DHT22;47261;52.892;5.738;2023-11-19T12:03:07;14.00;99.90
61392;DHT22;47261;52.892;5.738;2023-11-19T12:05:47;14.00;99.90
61392;DHT22;47261;52.892;5.738;2023-11-19T12:08:13;13.90;99.90
61392;DHT22;47261;52.892;5.738;2023-11-19T12:10:51;13.90;99.90
61392;DHT22;47261;52.892;5.738;2023-11-19T12:13:18;13.90;99.90
61392;DHT22;47261;52.892;5.738;2023-11-19T12:18:30;13.80;99.90
61392;DHT22;47261;52.892;5.738;2023-11-19T12:21:00;13.80;99.90
61392;DHT22;47261;52.892;5.738;2023-11-19T12:23:31;13.80;99.90
61392;DHT22;47261;52.892;5.738;2023-11-19T12:25:58;13.80;99.90
61392;DHT22;47261;52.892;5.738;2023-11-19T12:28:24;13.80;99.90
61392;DHT22;47261;52.892;5.738;2023-11-19T12:30:52;13.80;99.90
61392;DHT22;47261;52.892;5.738;2023-11-19T12:33:19;13.80;99.90
61392;DHT22;47261;52.892;5.738;2023-11-19T12:35:46;13.70;99.90
61392;DHT22;47261;52.892;5.738;2023-11-19T12:38:19;13.70;99.90
61392;DHT22;47261;52.892;5.738;2023-11-19T12:41:06;13.70;99.90
61392;DHT22;47261;52.892;5.738;2023-11-19T12:43:32;13.70;99.90
61392;DHT22;47261;52.892;5.738;2023-11-19T12:45:59;13.70;99.90
61392;DHT22;47261;52.892;5.738;2023-11-19T12:48:25;13.70;99.90
61392;DHT22;47261;52.892;5.738;2023-11-19T12:50:55;13.70;99.90
61392;DHT22;47261;52.892;5.738;2023-11-19T12:53:23;13.70;99.90
61392;DHT22;47261;52.892;5.738;2023-11-19T12:55:49;13.70;99.90
61392;DHT22;47261;52.892;5.738;2023-11-19T12:58:35;13.70;99.90
61392;DHT22;47261;52.892;5.738;2023-11-19T13:01:05;13.70;99.90
61392;DHT22;47261;52.892;5.738;2023-11-19T13:03:32;13.70;99.90
61392;DHT22;47261;52.892;5.738;2023-11-19T13:06:09;13.60;99.90
61392;DHT22;47261;52.892;5.738;2023-11-19T13:08:39;13.60;99.90
61392;DHT22;47261;52.892;5.738;2023-11-19T13:11:06;13.60;99.90
61392;DHT22;47261;52.892;5.738;2023-11-19T13:13:33;13.60;99.90
61392;DHT22;47261;52.892;5.738;2023-11-19T13:16:15;13.60;99.90
61392;DHT22;47261;52.892;5.738;2023-11-19T13:18:41;13.50;99.90
61392;DHT22;47261;52.892;5.738;2023-11-19T13:21:06;13.60;99.90
61392;DHT22;47261;52.892;5.738;2023-11-19T13:23:32;13.50;99.90
61392;DHT22;47261;52.892;5.738;2023-11-19T13:25:57;13.50;99.90
61392;DHT22;47261;52.892;5.738;2023-11-19T13:28:23;13.50;99.90
61392;DHT22;47261;52.892;5.738;2023-11-19T13:30:48;13.50;99.90
61392;DHT22;47261;52.892;5.738;2023-11-19T13:33:15;13.50;99.90
61392;DHT22;47261;52.892;5.738;2023-11-19T13:35:41;13.40;99.90
61392;DHT22;47261;52.892;5.738;2023-11-19T13:38:07;13.40;99.90
61392;DHT22;47261;52.892;5.738;2023-11-19T13:40:34;13.40;99.90
61392;DHT22;47261;52.892;5.738;2023-11-19T13:43:00;13.40;99.90
61392;DHT22;47261;52.892;5.738;2023-11-19T13:45:25;13.30;99.90
61392;DHT22;47261;52.892;5.738;2023-11-19T13:47:51;13.30;99.90
61392;DHT22;47261;52.892;5.738;2023-11-19T13:50:17;13.30;99.90
61392;DHT22;47261;52.892;5.738;2023-11-19T13:52:44;13.30;99.90
61392;DHT22;47261;52.892;5.738;2023-11-19T13:55:12;13.20;99.90
61392;DHT22;47261;52.892;5.738;2023-11-19T13:57:39;13.10;99.90
61392;DHT22;47261;52.892;5.738;2023-11-19T14:00:10;13.10;99.90
61392;DHT22;47261;52.892;5.738;2023-11-19T14:02:39;13.00;99.90
61392;DHT22;47261;52.892;5.738;2023-11-19T14:05:06;13.00;99.90
61392;DHT22;47261;52.892;5.738;2023-11-19T14:07:32;13.00;99.90
61392;DHT22;47261;52.892;5.738;2023-11-19T14:09:58;13.10;99.90
61392;DHT22;47261;52.892;5.738;2023-11-19T14:12:23;13.10;99.90
61392;DHT22;47261;52.892;5.738;2023-11-19T14:14:49;13.10;99.90
61392;DHT22;47261;52.892;5.738;2023-11-19T14:17:15;13.20;99.90
61392;DHT22;47261;52.892;5.738;2023-11-19T14:19:41;13.20;99.90
61392;DHT22;47261;52.892;5.738;2023-11-19T14:22:07;13.20;99.90
61392;DHT22;47261;52.892;5.738;2023-11-19T14:24:34;13.20;99.90
61392;DHT22;47261;52.892;5.738;2023-11-19T14:27:00;13.20;99.90
61392;DHT22;47261;52.892;5.738;2023-11-19T14:29:26;13.20;99.90
61392;DHT22;47261;52.892;5.738;2023-11-19T14:31:53;13.10;99.90
61392;DHT22;47261;52.892;5.738;2023-11-19T14:34:20;13.10;99.90
61392;DHT22;47261;52.892;5.738;2023-11-19T14:36:45;13.10;99.90
61392;DHT22;47261;52.892;5.738;2023-11-19T14:39:11;13.10;99.90
61392;DHT22;47261;52.892;5.738;2023-11-19T14:41:37;13.10;99.90
61392;DHT22;47261;52.892;5.738;2023-11-19T14:44:02;13.10;99.90
61392;DHT22;47261;52.892;5.738;2023-11-19T14:46:29;13.00;99.90
61392;DHT22;47261;52.892;5.738;2023-11-19T14:48:54;13.00;99.90
61392;DHT22;47261;52.892;5.738;2023-11-19T14:51:21;12.90;99.90
61392;DHT22;47261;52.892;5.738;2023-11-19T14:53:46;12.90;99.90
61392;DHT22;47261;52.892;5.738;2023-11-19T14:56:12;12.90;99.90
61392;DHT22;47261;52.892;5.738;2023-11-19T14:58:38;12.90;99.90
61392;DHT22;47261;52.892;5.738;2023-11-19T15:01:05;12.80;99.90
61392;DHT22;47261;52.892;5.738;2023-11-19T15:03:30;12.70;99.90
61392;DHT22;47261;52.892;5.738;2023-11-19T15:05:56;12.80;99.90
61392;DHT22;47261;52.892;5.738;2023-11-19T15:08:22;12.70;99.90
61392;DHT22;47261;52.892;5.738;2023-11-19T15:10:47;12.70;99.90
61392;DHT22;47261;52.892;5.738;2023-11-19T15:13:13;12.60;99.90
61392;DHT22;47261;52.892;5.738;2023-11-19T15:15:39;12.60;99.90
61392;DHT22;47261;52.892;5.738;2023-11-19T15:18:05;12.50;99.90
61392;DHT22;47261;52.892;5.738;2023-11-19T15:20:31;12.50;99.90
61392;DHT22;47261;52.892;5.738;2023-11-19T15:22:59;12.50;99.90
61392;DHT22;47261;52.892;5.738;2023-11-19T15:25:25;12.50;99.90
61392;DHT22;47261;52.892;5.738;2023-11-19T15:27:50;12.40;99.90
61392;DHT22;47261;52.892;5.738;2023-11-19T15:30:16;12.40;99.90
61392;DHT22;47261;52.892;5.738;2023-11-19T15:32:42;12.40;99.90
61392;DHT22;47261;52.892;5.738;2023-11-19T15:35:11;12.30;99.90
61392;DHT22;47261;52.892;5.738;2023-11-19T15:37:37;12.30;99.90
61392;DHT22;47261;52.892;5.738;2023-11-19T15:40:06;12.30;99.90
61392;DHT22;47261;52.892;5.738;2023-11-19T15:42:36;12.20;99.90
61392;DHT22;47261;52.892;5.738;2023-11-19T15:45:02;12.20;99.90
61392;DHT22;47261;52.892;5.738;2023-11-19T15:47:30;12.20;99.90
61392;DHT22;47261;52.892;5.738;2023-11-19T15:49:56;12.20;99.90
61392;DHT22;47261;52.892;5.738;2023-11-19T15:52:22;12.10;99.90
61392;DHT22;47261;52.892;5.738;2023-11-19T15:54:48;12.10;99.90
61392;DHT22;47261;52.892;5.738;2023-11-19T15:57:13;12.10;99.90
61392;DHT22;47261;52.892;5.738;2023-11-19T15:59:39;12.00;99.90